CYBV

Berens River Airport

Berens River, Manitoba, Canada
METAR CYBV 222200Z 09007KT 15SM BKN012 M08/M11 A3013 RMK SC7 SNW CVR/MUCH LOOSE/LAST STFD OBS/NEXT 231300UTC SLP226
Observed Flight Rules
Jan-22 @ 22:00 UTC (4 hours ago) Marginal Visual Flight Rules
Wind Visibility Clouds
90° at 7 knots 15 miles
  • Broken at 1,200' AGL
Temperatures Readings
Current -8°C / 18°F
Dewpoint -11°C / 12°F
Humidity 79%
Altimeter 30.13" Hg
Pressure 1022.6 hPa
Elevation 222
METAR CYBV 222200Z 09007KT 15SM BKN012 M08/M11 A3013 RMK SC7 SNW CVR/MUCH LOOSE/LAST STFD OBS/NEXT 231300UTC SLP226
Observed Flight Rules
Jan-22 @ 22:00 UTC
(4 hours ago)
MVFR
Wind Visibility
90° at 7 knots 15 miles
Clouds
  • Broken at 1,200' AGL
Temperature Dewpoint
-8°C / 18°F -11°C / 12°F
Humidity Altimeter Pressure
79% 30.13" Hg 1022.6 hPa